createdAt,value
2022-08-26T00:00:18.976Z,22.24
2022-08-26T00:02:24.200Z,22.21
2022-08-26T00:04:29.249Z,22.18
2022-08-26T00:06:35.175Z,22.16
2022-08-26T00:08:40.598Z,22.17
2022-08-26T00:10:46.469Z,22.16
2022-08-26T00:12:51.864Z,22.17
2022-08-26T00:14:56.669Z,22.19
2022-08-26T00:17:01.477Z,22.20
2022-08-26T00:19:06.274Z,22.21
2022-08-26T00:21:12.849Z,22.23
2022-08-26T00:23:17.854Z,22.25
2022-08-26T00:25:22.999Z,22.27
2022-08-26T00:27:30.381Z,22.27
2022-08-26T00:29:37.877Z,22.25
2022-08-26T00:31:42.899Z,22.21
2022-08-26T00:33:50.076Z,22.15
2022-08-26T00:35:55.098Z,22.10
2022-08-26T00:38:00.846Z,22.06
2022-08-26T00:40:08.919Z,22.02
2022-08-26T00:42:16.090Z,22.01
2022-08-26T00:44:20.902Z,21.98
2022-08-26T00:46:29.679Z,21.94
2022-08-26T00:48:37.679Z,21.95
2022-08-26T00:50:48.416Z,21.94
2022-08-26T00:52:54.749Z,21.95
2022-08-26T00:55:09.203Z,21.97
2022-08-26T00:57:18.054Z,21.98
2022-08-26T00:59:24.019Z,21.98
2022-08-26T01:01:28.804Z,21.98
2022-08-26T01:03:37.434Z,21.96
2022-08-26T01:05:43.055Z,21.92
2022-08-26T01:07:47.906Z,21.88
2022-08-26T01:09:55.004Z,21.86
2022-08-26T01:12:02.909Z,21.81
2022-08-26T01:14:08.680Z,21.76
2022-08-26T01:16:16.157Z,21.73
2022-08-26T01:18:22.160Z,21.69
2022-08-26T01:20:36.405Z,21.69
2022-08-26T01:22:48.734Z,21.73
2022-08-26T01:24:59.838Z,21.76
2022-08-26T01:27:08.964Z,21.78
2022-08-26T01:29:18.588Z,21.75
2022-08-26T01:31:27.841Z,21.71
2022-08-26T01:33:42.103Z,21.67
2022-08-26T01:35:47.939Z,21.66
2022-08-26T01:37:55.931Z,21.68
2022-08-26T01:40:00.980Z,21.66
2022-08-26T01:42:10.265Z,21.64
2022-08-26T01:44:19.920Z,21.60
2022-08-26T01:46:26.825Z,21.60
2022-08-26T01:48:34.111Z,21.62
2022-08-26T01:50:43.454Z,21.63
2022-08-26T01:53:04.741Z,21.63
2022-08-26T01:55:12.312Z,21.62
2022-08-26T01:57:19.409Z,21.62
2022-08-26T01:59:25.490Z,21.62
2022-08-26T02:01:31.323Z,21.61
2022-08-26T02:03:42.283Z,21.61
2022-08-26T02:05:51.511Z,21.57
2022-08-26T02:07:57.095Z,21.53
2022-08-26T02:10:02.509Z,21.51
2022-08-26T02:12:10.742Z,21.50
2022-08-26T02:14:19.333Z,21.47
2022-08-26T02:16:27.008Z,21.48
2022-08-26T02:18:37.272Z,21.47
2022-08-26T02:20:42.086Z,21.47
2022-08-26T02:22:47.165Z,21.46
2022-08-26T02:24:54.084Z,21.45
2022-08-26T02:27:00.403Z,21.48
2022-08-26T02:29:09.775Z,21.50
2022-08-26T02:31:14.560Z,21.52
2022-08-26T02:33:19.260Z,21.50
2022-08-26T02:35:25.614Z,21.50
2022-08-26T02:37:32.006Z,21.50
2022-08-26T02:39:40.929Z,21.50
2022-08-26T02:41:45.617Z,21.47
2022-08-26T02:43:50.285Z,21.40
2022-08-26T02:45:55.151Z,21.37
2022-08-26T02:47:59.893Z,21.37
2022-08-26T02:50:06.582Z,21.37
2022-08-26T02:52:13.257Z,21.38
2022-08-26T02:54:20.098Z,21.35
2022-08-26T02:56:25.363Z,21.34
2022-08-26T02:58:30.364Z,21.33
2022-08-26T03:00:38.071Z,21.32
2022-08-26T03:02:43.329Z,21.28
2022-08-26T03:04:58.042Z,21.26
2022-08-26T03:07:07.466Z,21.26
2022-08-26T03:09:18.573Z,21.25
2022-08-26T03:11:24.102Z,21.24
2022-08-26T03:13:29.464Z,21.21
2022-08-26T03:15:34.548Z,21.16
2022-08-26T03:17:39.294Z,21.13
2022-08-26T03:19:44.429Z,21.14
2022-08-26T03:21:50.213Z,21.15
2022-08-26T03:23:58.739Z,21.17
2022-08-26T03:26:04.417Z,21.17
2022-08-26T03:28:09.662Z,21.14
2022-08-26T03:30:15.979Z,21.12
2022-08-26T03:32:20.696Z,21.13
2022-08-26T03:34:25.510Z,21.13
2022-08-26T03:36:30.593Z,21.16
2022-08-26T03:38:35.235Z,21.16
2022-08-26T03:40:40.549Z,21.17
2022-08-26T03:42:45.640Z,21.18
2022-08-26T03:44:50.565Z,21.20
2022-08-26T03:46:55.742Z,21.19
2022-08-26T03:49:01.454Z,21.19
2022-08-26T03:51:11.450Z,21.20
2022-08-26T03:53:16.335Z,21.20
2022-08-26T03:55:28.335Z,21.20
2022-08-26T03:57:33.051Z,21.22
2022-08-26T03:59:37.792Z,21.22
2022-08-26T04:01:46.206Z,21.23
2022-08-26T04:03:52.813Z,21.22
2022-08-26T04:05:57.507Z,21.22
2022-08-26T04:08:02.360Z,21.21
2022-08-26T04:10:08.787Z,21.20
2022-08-26T04:12:14.711Z,21.17
2022-08-26T04:14:22.061Z,21.15
2022-08-26T04:16:27.407Z,21.11
2022-08-26T04:18:37.061Z,21.11
2022-08-26T04:20:42.044Z,21.10
2022-08-26T04:22:46.972Z,21.11
2022-08-26T04:24:51.777Z,21.11
2022-08-26T04:26:56.516Z,21.10
2022-08-26T04:29:01.208Z,21.08
2022-08-26T04:31:06.182Z,21.04
2022-08-26T04:33:12.980Z,21.00
2022-08-26T04:35:18.181Z,20.96
2022-08-26T04:37:24.841Z,20.93
2022-08-26T04:39:29.645Z,20.91
2022-08-26T04:41:36.768Z,20.89
2022-08-26T04:43:41.620Z,20.88
2022-08-26T04:45:46.425Z,20.94
2022-08-26T04:47:54.307Z,21.00
2022-08-26T04:49:59.046Z,21.08
2022-08-26T04:52:04.372Z,21.13
2022-08-26T04:54:09.850Z,21.17
2022-08-26T04:56:19.057Z,21.21
2022-08-26T04:58:25.385Z,21.27
2022-08-26T05:00:30.495Z,21.32
2022-08-26T05:02:35.563Z,21.36
2022-08-26T05:04:40.347Z,21.37
2022-08-26T05:06:45.326Z,21.38
2022-08-26T05:08:50.110Z,21.40
2022-08-26T05:10:55.570Z,21.42
2022-08-26T05:13:00.669Z,21.45
2022-08-26T05:15:06.704Z,21.53
2022-08-26T05:17:14.924Z,21.62
2022-08-26T05:19:19.895Z,21.66
2022-08-26T05:21:27.902Z,21.68
2022-08-26T05:23:35.117Z,21.73
2022-08-26T05:25:42.434Z,21.78
2022-08-26T05:27:47.219Z,21.80
2022-08-26T05:29:56.072Z,21.82
2022-08-26T05:32:01.576Z,21.89
2022-08-26T05:34:08.390Z,21.89
2022-08-26T05:36:16.445Z,21.93
2022-08-26T05:38:22.498Z,22.01
2022-08-26T05:40:27.776Z,22.10
2022-08-26T05:42:32.755Z,22.21
2022-08-26T05:44:53.720Z,22.28
2022-08-26T05:47:00.545Z,22.31
2022-08-26T05:49:12.667Z,22.36
2022-08-26T05:51:17.935Z,22.40
2022-08-26T05:53:23.987Z,22.44
2022-08-26T05:55:30.829Z,22.49
2022-08-26T05:57:40.396Z,22.56
2022-08-26T05:59:47.640Z,22.60
2022-08-26T06:01:53.659Z,22.67
2022-08-26T06:04:01.699Z,22.72
2022-08-26T06:06:09.943Z,22.79
2022-08-26T06:08:15.418Z,22.84
2022-08-26T06:10:33.402Z,22.87
2022-08-26T06:12:38.193Z,22.89
2022-08-26T06:14:43.021Z,22.94
2022-08-26T06:16:47.764Z,22.98
2022-08-26T06:18:53.519Z,23.03
2022-08-26T06:21:01.751Z,23.08
2022-08-26T06:23:06.747Z,23.13
2022-08-26T06:25:12.796Z,23.22
2022-08-26T06:27:17.557Z,23.31
2022-08-26T06:29:24.863Z,23.40
2022-08-26T06:31:32.165Z,23.48
2022-08-26T06:33:38.082Z,23.55
2022-08-26T06:35:44.279Z,23.62
2022-08-26T06:37:49.026Z,23.72
2022-08-26T06:39:54.324Z,23.80
2022-08-26T06:41:59.362Z,23.91
2022-08-26T06:44:06.264Z,24.02
2022-08-26T06:46:13.728Z,24.12
2022-08-26T06:48:20.674Z,24.23
2022-08-26T06:50:26.309Z,24.30
2022-08-26T06:52:31.170Z,24.36
2022-08-26T06:54:35.978Z,24.43
2022-08-26T06:56:44.517Z,24.48
2022-08-26T06:58:53.046Z,24.54
2022-08-26T07:01:03.839Z,24.60
2022-08-26T07:03:16.029Z,24.68
2022-08-26T07:05:20.916Z,24.69
2022-08-26T07:07:25.641Z,24.73
2022-08-26T07:09:31.316Z,24.78
2022-08-26T07:11:37.066Z,24.82
2022-08-26T07:13:42.045Z,24.91
2022-08-26T07:15:47.924Z,25.03
2022-08-26T07:17:58.002Z,25.20
2022-08-26T07:20:03.312Z,25.35
2022-08-26T07:22:09.579Z,25.44
2022-08-26T07:24:14.755Z,25.49
2022-08-26T07:26:23.231Z,25.50
2022-08-26T07:28:29.748Z,25.51
2022-08-26T07:30:38.774Z,25.52
2022-08-26T07:32:43.583Z,25.54
2022-08-26T07:34:51.469Z,25.57
2022-08-26T07:36:57.048Z,25.58
2022-08-26T07:39:03.409Z,25.63
2022-08-26T07:41:11.612Z,25.70
2022-08-26T07:43:19.700Z,25.75
2022-08-26T07:45:25.657Z,25.78
2022-08-26T07:47:30.876Z,25.84
2022-08-26T07:49:36.414Z,25.90
2022-08-26T07:51:41.860Z,25.96
2022-08-26T07:53:48.073Z,26.03
2022-08-26T07:55:57.335Z,26.08
2022-08-26T07:58:02.796Z,26.15
2022-08-26T08:00:12.409Z,26.23
2022-08-26T08:02:17.741Z,26.28
2022-08-26T08:04:26.518Z,26.36
2022-08-26T08:06:31.845Z,26.44
2022-08-26T08:08:36.763Z,26.50
2022-08-26T08:10:41.679Z,26.56
2022-08-26T08:12:54.724Z,26.58
2022-08-26T08:14:59.607Z,26.59
2022-08-26T08:17:04.652Z,26.61
2022-08-26T08:19:10.088Z,26.64
2022-08-26T08:21:21.709Z,26.72
2022-08-26T08:23:29.262Z,26.79
2022-08-26T08:25:34.584Z,26.83
2022-08-26T08:27:40.686Z,26.89
2022-08-26T08:29:46.626Z,26.93
2022-08-26T08:31:58.785Z,26.96
2022-08-26T08:34:04.987Z,27.02
2022-08-26T08:36:10.098Z,27.09
2022-08-26T08:38:23.224Z,27.12
2022-08-26T08:40:29.409Z,27.20
2022-08-26T08:42:43.664Z,27.30
2022-08-26T08:44:52.793Z,27.38
2022-08-26T08:47:03.103Z,27.41
2022-08-26T08:49:08.845Z,27.46
2022-08-26T08:51:24.763Z,27.52
2022-08-26T08:53:33.774Z,27.59
2022-08-26T08:55:51.492Z,27.64
2022-08-26T08:58:04.521Z,27.66
2022-08-26T09:00:16.892Z,27.64
2022-08-26T09:02:32.193Z,27.63
2022-08-26T09:04:54.388Z,27.67
2022-08-26T09:07:02.554Z,27.69
2022-08-26T09:09:07.790Z,27.73
2022-08-26T09:11:14.008Z,27.78
2022-08-26T09:13:26.290Z,27.86
2022-08-26T09:15:45.003Z,27.93
2022-08-26T09:17:56.227Z,27.98
2022-08-26T09:20:12.288Z,28.05
2022-08-26T09:22:32.336Z,28.17
2022-08-26T09:24:42.033Z,28.30
2022-08-26T09:26:53.102Z,28.34
2022-08-26T09:29:00.324Z,28.32
2022-08-26T09:31:13.717Z,28.35
2022-08-26T09:33:26.914Z,28.42
2022-08-26T09:35:34.003Z,28.49
2022-08-26T09:37:43.474Z,28.59
2022-08-26T09:39:48.935Z,28.68
2022-08-26T09:42:05.025Z,28.69
2022-08-26T09:44:25.799Z,28.75
2022-08-26T09:46:31.845Z,28.79
2022-08-26T09:48:40.561Z,28.75
2022-08-26T09:50:55.686Z,28.71
2022-08-26T09:53:13.197Z,28.72
2022-08-26T09:55:24.078Z,28.74
2022-08-26T09:57:30.703Z,28.82
2022-08-26T09:59:35.602Z,28.88
2022-08-26T10:01:42.701Z,28.96
2022-08-26T10:03:47.553Z,29.03
2022-08-26T10:06:00.777Z,29.11
2022-08-26T10:08:19.900Z,29.20
2022-08-26T10:10:33.036Z,29.27
2022-08-26T10:12:44.643Z,29.28
2022-08-26T10:14:52.920Z,29.31
2022-08-26T10:17:02.074Z,29.40
2022-08-26T10:19:11.576Z,29.51
2022-08-26T10:21:23.450Z,29.61
2022-08-26T10:23:32.998Z,29.68
2022-08-26T10:25:42.463Z,29.76
2022-08-26T10:27:54.627Z,29.86
2022-08-26T10:30:07.132Z,29.96
2022-08-26T10:32:19.105Z,30.03
2022-08-26T10:34:24.195Z,30.13
2022-08-26T10:36:46.976Z,30.24
2022-08-26T10:39:05.090Z,30.36
2022-08-26T10:41:16.795Z,30.43
2022-08-26T10:43:26.027Z,30.50
2022-08-26T10:45:37.445Z,30.56
2022-08-26T10:47:50.289Z,30.63
2022-08-26T10:50:00.476Z,30.73
2022-08-26T10:52:16.790Z,30.84
2022-08-26T10:54:30.042Z,30.93
2022-08-26T10:56:44.426Z,30.97
2022-08-26T10:59:03.954Z,31.04
2022-08-26T11:01:17.119Z,31.01
2022-08-26T11:03:38.309Z,31.01
2022-08-26T11:05:43.105Z,30.95
2022-08-26T11:07:48.812Z,30.93
2022-08-26T11:09:54.540Z,30.96
2022-08-26T11:12:01.873Z,31.05
2022-08-26T11:14:10.705Z,31.14
2022-08-26T11:16:33.721Z,31.17
2022-08-26T11:18:51.412Z,31.16
2022-08-26T11:20:56.196Z,31.19
2022-08-26T11:23:45.812Z,31.18
2022-08-26T11:26:16.439Z,31.03
2022-08-26T11:28:44.180Z,30.97
2022-08-26T11:30:56.956Z,31.01
2022-08-26T11:33:03.277Z,31.02
2022-08-26T11:35:13.308Z,30.97
2022-08-26T11:39:28.762Z,30.95
2022-08-26T11:41:34.884Z,31.00
2022-08-26T11:43:41.071Z,31.01
2022-08-26T11:45:48.231Z,30.98
2022-08-26T11:47:55.502Z,31.00
2022-08-26T11:50:24.557Z,31.09
2022-08-26T11:52:29.277Z,31.31
2022-08-26T11:54:34.544Z,31.48
2022-08-26T11:56:42.136Z,31.58
2022-08-26T11:58:47.345Z,31.67
2022-08-26T12:00:55.790Z,31.77
2022-08-26T12:03:06.272Z,31.91
2022-08-26T12:05:12.962Z,32.04
2022-08-26T12:07:23.792Z,32.14
2022-08-26T12:09:33.219Z,32.19
2022-08-26T12:11:39.131Z,32.24
2022-08-26T12:13:56.192Z,32.26
2022-08-26T12:16:01.412Z,32.29
2022-08-26T12:18:29.629Z,32.33
2022-08-26T12:20:36.978Z,32.37
2022-08-26T12:22:48.085Z,32.44
2022-08-26T12:24:56.919Z,32.55
2022-08-26T12:27:20.954Z,32.67
2022-08-26T12:29:28.019Z,32.74
2022-08-26T12:31:36.865Z,32.79
2022-08-26T12:33:41.754Z,32.81
2022-08-26T12:35:48.543Z,32.79
2022-08-26T12:37:57.651Z,32.80
2022-08-26T12:40:35.543Z,32.90
2022-08-26T12:42:43.755Z,33.02
2022-08-26T12:44:57.377Z,33.13
2022-08-26T12:47:06.478Z,33.25
2022-08-26T12:49:14.358Z,33.35
2022-08-26T12:51:25.781Z,33.36
2022-08-26T12:53:33.091Z,33.33
2022-08-26T12:55:42.379Z,33.35
2022-08-26T12:57:47.287Z,33.42
2022-08-26T13:00:09.536Z,33.36
2022-08-26T13:02:38.305Z,33.29
2022-08-26T13:04:43.916Z,33.27
2022-08-26T13:06:48.727Z,33.31
2022-08-26T13:08:55.215Z,33.37
2022-08-26T13:11:11.989Z,33.33
2022-08-26T13:13:17.233Z,33.37
2022-08-26T13:15:22.061Z,33.48
2022-08-26T13:17:27.341Z,33.50
2022-08-26T13:19:32.045Z,33.47
2022-08-26T13:21:41.228Z,33.47
2022-08-26T13:23:46.392Z,33.46
2022-08-26T13:25:51.553Z,33.45
2022-08-26T13:27:56.281Z,33.38
2022-08-26T13:30:01.033Z,33.38
2022-08-26T13:32:08.023Z,33.43
2022-08-26T13:34:16.740Z,33.51
2022-08-26T13:36:21.477Z,33.62
2022-08-26T13:38:33.764Z,33.73
2022-08-26T13:40:38.827Z,33.81
2022-08-26T13:42:49.903Z,33.84
2022-08-26T13:44:54.920Z,33.91
2022-08-26T13:46:59.717Z,33.89
2022-08-26T13:49:04.570Z,33.88
2022-08-26T13:51:09.501Z,33.94
2022-08-26T13:53:14.905Z,33.93
2022-08-26T13:55:19.824Z,33.92
2022-08-26T13:57:24.576Z,33.91
2022-08-26T13:59:29.385Z,33.87
2022-08-26T14:01:34.865Z,33.84
2022-08-26T14:03:39.762Z,33.75
2022-08-26T14:05:44.609Z,33.68
2022-08-26T14:07:49.337Z,33.60
2022-08-26T14:09:54.097Z,33.53
2022-08-26T14:12:00.968Z,33.51
2022-08-26T14:14:07.066Z,33.52
2022-08-26T14:16:16.077Z,33.56
2022-08-26T14:18:27.784Z,33.60
2022-08-26T14:20:34.985Z,33.61
2022-08-26T14:22:52.080Z,33.59
2022-08-26T14:25:08.218Z,33.64
2022-08-26T14:27:13.240Z,33.66
2022-08-26T14:29:18.004Z,33.73
2022-08-26T14:31:22.928Z,33.77
2022-08-26T14:33:31.222Z,33.79
2022-08-26T14:35:36.001Z,33.75
2022-08-26T14:37:40.879Z,33.62
2022-08-26T14:39:46.225Z,33.54
2022-08-26T14:41:55.234Z,33.54
2022-08-26T14:44:02.772Z,33.56
2022-08-26T14:46:07.798Z,33.60
2022-08-26T14:48:12.713Z,33.63
2022-08-26T14:50:20.408Z,33.68
2022-08-26T14:52:25.177Z,33.68
2022-08-26T14:54:30.176Z,33.61
2022-08-26T14:56:36.097Z,33.60
2022-08-26T14:58:40.891Z,33.64
2022-08-26T15:00:45.749Z,33.67
2022-08-26T15:02:51.449Z,33.68
2022-08-26T15:04:56.363Z,33.64
2022-08-26T15:07:02.195Z,33.60
2022-08-26T15:09:07.082Z,33.57
2022-08-26T15:11:12.727Z,33.56
2022-08-26T15:13:17.459Z,33.57
2022-08-26T15:15:22.420Z,33.56
2022-08-26T15:17:27.724Z,33.54
2022-08-26T15:19:32.783Z,33.55
2022-08-26T15:21:38.241Z,33.53
2022-08-26T15:23:43.243Z,33.51
2022-08-26T15:25:52.700Z,33.52
2022-08-26T15:27:57.503Z,33.52
2022-08-26T15:30:04.008Z,33.49
2022-08-26T15:32:09.048Z,33.47
2022-08-26T15:34:16.679Z,33.48
2022-08-26T15:36:21.961Z,33.49
2022-08-26T15:38:28.121Z,33.52
2022-08-26T15:40:32.941Z,33.52
2022-08-26T15:42:37.934Z,33.52
2022-08-26T15:44:45.688Z,33.51
2022-08-26T15:46:55.293Z,33.49
2022-08-26T15:49:03.394Z,33.38
2022-08-26T15:51:18.287Z,33.34
2022-08-26T15:53:23.573Z,33.31
2022-08-26T15:55:28.488Z,33.30
2022-08-26T15:57:33.264Z,33.29
2022-08-26T15:59:38.085Z,33.28
2022-08-26T16:01:43.002Z,33.27
2022-08-26T16:03:47.777Z,33.23
2022-08-26T16:05:52.974Z,33.21
2022-08-26T16:07:57.738Z,33.15
2022-08-26T16:10:02.596Z,33.11
2022-08-26T16:12:07.771Z,33.05
2022-08-26T16:14:12.621Z,32.97
2022-08-26T16:16:18.385Z,32.91
2022-08-26T16:18:23.652Z,32.86
2022-08-26T16:20:28.948Z,32.84
2022-08-26T16:22:33.689Z,32.83
2022-08-26T16:24:38.852Z,32.82
2022-08-26T16:26:44.420Z,32.80
2022-08-26T16:28:49.448Z,32.77
2022-08-26T16:30:54.311Z,32.74
2022-08-26T16:32:59.145Z,32.68
2022-08-26T16:35:04.267Z,32.63
2022-08-26T16:37:09.042Z,32.55
2022-08-26T16:39:14.310Z,32.46
2022-08-26T16:41:19.567Z,32.35
2022-08-26T16:43:24.377Z,32.26
2022-08-26T16:45:29.220Z,32.15
2022-08-26T16:47:34.216Z,32.08
2022-08-26T16:49:39.208Z,32.01
2022-08-26T16:51:43.906Z,31.95
2022-08-26T16:53:49.135Z,31.89
2022-08-26T16:55:54.080Z,31.84
2022-08-26T16:57:59.333Z,31.81
2022-08-26T17:00:09.694Z,31.77
2022-08-26T17:02:14.493Z,31.72
2022-08-26T17:04:19.222Z,31.67
2022-08-26T17:06:24.073Z,31.60
2022-08-26T17:08:29.120Z,31.53
2022-08-26T17:10:34.396Z,31.47
2022-08-26T17:12:39.692Z,31.42
2022-08-26T17:14:45.810Z,31.36
2022-08-26T17:16:50.724Z,31.30
2022-08-26T17:18:56.914Z,31.26
2022-08-26T17:21:04.611Z,31.24
2022-08-26T17:23:09.600Z,31.19
2022-08-26T17:25:17.884Z,31.14
2022-08-26T17:27:22.574Z,31.08
2022-08-26T17:29:27.283Z,31.05
2022-08-26T17:31:32.178Z,31.01
2022-08-26T17:33:37.539Z,30.97
2022-08-26T17:35:42.927Z,30.93
2022-08-26T17:37:47.742Z,30.90
2022-08-26T17:39:52.490Z,30.88
2022-08-26T17:41:57.334Z,30.85
2022-08-26T17:44:02.185Z,30.82
2022-08-26T17:46:09.039Z,30.78
2022-08-26T17:48:14.089Z,30.77
2022-08-26T17:50:19.530Z,30.75
2022-08-26T17:52:24.275Z,30.74
2022-08-26T17:54:29.320Z,30.70
2022-08-26T17:56:35.953Z,30.64
2022-08-26T17:58:40.956Z,30.56
2022-08-26T18:00:54.081Z,30.48
2022-08-26T18:02:58.835Z,30.41
2022-08-26T18:05:03.751Z,30.33
2022-08-26T18:07:08.572Z,30.26
2022-08-26T18:09:13.406Z,30.20
2022-08-26T18:11:21.593Z,30.14
2022-08-26T18:13:26.372Z,30.09
2022-08-26T18:15:31.259Z,30.05
2022-08-26T18:17:36.344Z,30.01
2022-08-26T18:19:41.047Z,29.98
2022-08-26T18:21:45.918Z,29.94
2022-08-26T18:23:52.258Z,29.90
2022-08-26T18:25:57.138Z,29.90
2022-08-26T18:28:05.243Z,29.85
2022-08-26T18:30:20.348Z,29.82
2022-08-26T18:32:25.331Z,29.75
2022-08-26T18:34:31.733Z,29.69
2022-08-26T18:36:38.020Z,29.64
2022-08-26T18:38:42.864Z,29.58
2022-08-26T18:40:47.675Z,29.53
2022-08-26T18:42:54.222Z,29.47
2022-08-26T18:44:59.303Z,29.41
2022-08-26T18:47:04.521Z,29.35
2022-08-26T18:49:09.893Z,29.30
2022-08-26T18:51:19.355Z,29.27
2022-08-26T18:53:24.066Z,29.24
2022-08-26T18:55:28.977Z,29.19
2022-08-26T18:57:34.379Z,29.13
2022-08-26T18:59:39.198Z,29.07
2022-08-26T19:01:44.417Z,29.02
2022-08-26T19:03:49.307Z,28.96
2022-08-26T19:05:54.232Z,28.93
2022-08-26T19:07:59.347Z,28.91
2022-08-26T19:10:04.618Z,28.89
2022-08-26T19:12:10.737Z,28.85
2022-08-26T19:14:16.851Z,28.83
2022-08-26T19:16:24.883Z,28.80
2022-08-26T19:18:30.523Z,28.74
2022-08-26T19:20:44.719Z,28.65
2022-08-26T19:22:52.087Z,28.56
2022-08-26T19:24:57.396Z,28.44
2022-08-26T19:27:03.314Z,28.32
2022-08-26T19:29:08.498Z,28.18
2022-08-26T19:31:14.095Z,28.07
2022-08-26T19:33:19.312Z,27.96
2022-08-26T19:35:24.211Z,27.85
2022-08-26T19:37:29.919Z,27.69
2022-08-26T19:39:34.974Z,27.57
2022-08-26T19:41:41.048Z,27.46
2022-08-26T19:43:46.607Z,27.37
2022-08-26T19:45:52.070Z,27.30
2022-08-26T19:47:57.297Z,27.27
2022-08-26T19:50:02.049Z,27.24
2022-08-26T19:52:08.749Z,27.25
2022-08-26T19:54:13.826Z,27.23
2022-08-26T19:56:19.510Z,27.19
2022-08-26T19:58:24.794Z,27.13
2022-08-26T20:00:31.354Z,27.10
2022-08-26T20:02:36.484Z,27.07
2022-08-26T20:04:41.929Z,27.02
2022-08-26T20:06:47.179Z,26.98
2022-08-26T20:08:56.955Z,26.90
2022-08-26T20:11:04.872Z,26.83
2022-08-26T20:13:09.859Z,26.75
2022-08-26T20:15:15.232Z,26.70
2022-08-26T20:17:20.505Z,26.63
2022-08-26T20:19:25.664Z,26.59
2022-08-26T20:21:32.152Z,26.55
2022-08-26T20:23:37.297Z,26.50
2022-08-26T20:25:42.498Z,26.46
2022-08-26T20:27:47.644Z,26.42
2022-08-26T20:29:52.757Z,26.39
2022-08-26T20:31:58.194Z,26.36
2022-08-26T20:34:03.402Z,26.31
2022-08-26T20:36:09.080Z,26.27
2022-08-26T20:38:14.638Z,26.22
2022-08-26T20:40:20.651Z,26.17
2022-08-26T20:42:25.531Z,26.13
2022-08-26T20:44:30.459Z,26.11
2022-08-26T20:46:35.687Z,26.08
2022-08-26T20:48:40.543Z,26.05
2022-08-26T20:50:45.285Z,26.02
2022-08-26T20:52:50.137Z,25.97
2022-08-26T20:54:55.104Z,25.94
2022-08-26T20:57:00.369Z,25.92
2022-08-26T20:59:06.979Z,25.89
2022-08-26T21:01:18.651Z,25.88
2022-08-26T21:03:23.904Z,25.87
2022-08-26T21:05:28.908Z,25.86
2022-08-26T21:07:33.837Z,25.85
2022-08-26T21:09:38.991Z,25.85
2022-08-26T21:11:44.600Z,25.84
2022-08-26T21:14:04.315Z,25.84
2022-08-26T21:16:12.018Z,25.84
2022-08-26T21:18:16.875Z,25.84
2022-08-26T21:20:21.760Z,25.84
2022-08-26T21:22:26.602Z,25.83
2022-08-26T21:24:31.557Z,25.81
2022-08-26T21:26:36.913Z,25.78
2022-08-26T21:28:43.946Z,25.76
2022-08-26T21:30:48.688Z,25.72
2022-08-26T21:32:53.886Z,25.68
2022-08-26T21:34:59.833Z,25.63
2022-08-26T21:37:05.576Z,25.57
2022-08-26T21:39:21.318Z,25.52
2022-08-26T21:41:27.214Z,25.47
2022-08-26T21:43:35.150Z,25.43
2022-08-26T21:45:42.258Z,25.41
2022-08-26T21:47:47.516Z,25.36
2022-08-26T21:49:54.832Z,25.33
2022-08-26T21:51:59.610Z,25.29
2022-08-26T21:54:10.834Z,25.26
2022-08-26T21:56:19.860Z,25.23
2022-08-26T21:58:24.668Z,25.20
2022-08-26T22:00:29.810Z,25.16
2022-08-26T22:02:37.369Z,25.14
2022-08-26T22:04:46.838Z,25.11
2022-08-26T22:06:56.725Z,25.06
2022-08-26T22:09:03.086Z,25.01
2022-08-26T22:11:08.295Z,24.98
2022-08-26T22:13:13.440Z,24.95
2022-08-26T22:15:20.277Z,24.91
2022-08-26T22:17:25.066Z,24.88
2022-08-26T22:19:30.052Z,24.84
2022-08-26T22:21:38.059Z,24.80
2022-08-26T22:23:42.921Z,24.79
2022-08-26T22:25:47.871Z,24.76
2022-08-26T22:27:52.768Z,24.74
2022-08-26T22:29:57.484Z,24.70
2022-08-26T22:32:02.951Z,24.68
2022-08-26T22:34:09.528Z,24.65
2022-08-26T22:36:20.608Z,24.63
2022-08-26T22:38:25.545Z,24.62
2022-08-26T22:40:30.514Z,24.58
2022-08-26T22:42:35.518Z,24.54
2022-08-26T22:44:40.326Z,24.51
2022-08-26T22:46:45.662Z,24.49
2022-08-26T22:48:54.029Z,24.48
2022-08-26T22:51:00.366Z,24.45
2022-08-26T22:53:05.264Z,24.42
2022-08-26T22:55:11.681Z,24.39
2022-08-26T22:57:16.412Z,24.35
2022-08-26T22:59:21.140Z,24.34
2022-08-26T23:01:29.048Z,24.30
2022-08-26T23:03:34.263Z,24.28
2022-08-26T23:05:40.748Z,24.26
2022-08-26T23:07:45.543Z,24.25
2022-08-26T23:09:50.358Z,24.24
2022-08-26T23:11:55.636Z,24.23
2022-08-26T23:14:00.427Z,24.20
2022-08-26T23:16:09.709Z,24.18
2022-08-26T23:18:15.337Z,24.16
2022-08-26T23:20:20.247Z,24.13
2022-08-26T23:22:25.348Z,24.13
2022-08-26T23:24:30.185Z,24.12
2022-08-26T23:26:35.847Z,24.10
2022-08-26T23:28:40.577Z,24.08
2022-08-26T23:30:45.253Z,24.06
2022-08-26T23:32:50.349Z,24.02
2022-08-26T23:34:55.135Z,23.99
2022-08-26T23:37:00.995Z,23.95
2022-08-26T23:39:06.424Z,23.92
2022-08-26T23:41:11.231Z,23.89
2022-08-26T23:43:17.180Z,23.86
2022-08-26T23:45:22.799Z,23.84
2022-08-26T23:47:27.662Z,23.84
2022-08-26T23:49:33.282Z,23.83
2022-08-26T23:51:39.159Z,23.81
2022-08-26T23:53:44.040Z,23.78
2022-08-26T23:55:52.116Z,23.77
2022-08-26T23:57:56.823Z,23.75
